Michipicoten — CFG8060 — position and weather

sailwx.info

Track history (hours):
 
Tides and Currents Weather Stations Pressure Air Temp Water Temp Dewpoint Dewpoint Depression Visibility Wind Speed Wind Dir Waves Ship Positions

Michipicoten

Last reported at 2016-Dec-06 10:24 UTC. Time now 2016-Dec-09 05:49 UTC.
Position N 43°12' W 079°12'.

Length 213 m; draft 7.8 m.

Type: Cargo ship. MMSI: 316002501.

Date/timePositionNaut miles runAvg speedWind from/ knotsBaromVisibWave heightAir tempDewpointWater temp
2016-Dec-06 10:24N 43°12' W 079°12'1 0.9
2016-Dec-06 09:32N 43°13' W 079°13'3 3.0
2016-Dec-06 08:33N 43°16' W 079°12'247 9.9
2016-Dec-05 07:33N 45°14' W 074°09'8 7.8
2016-Dec-05 06:33N 45°15' W 073°58'4 3.7
2016-Dec-05 05:31N 45°18' W 073°55'1 1.0
2016-Dec-05 04:32N 45°19' W 073°55'6 5.8
2016-Dec-05 03:33N 45°23' W 073°49'7 7.0
2016-Dec-05 02:33N 45°24' W 073°39'4 3.6
2016-Dec-05 01:20N 45°24' W 073°33'4 4.7
2016-Dec-05 00:31N 45°28' W 073°30'2 1.9
2016-Dec-04 23:17N 45°30' W 073°31'3 0.1
2016-Dec-03 13:32N 45°27' W 073°30'4 3.5
2016-Dec-03 12:24N 45°24' W 073°34'1 1.7
2016-Dec-03 11:33N 45°24' W 073°36'5 5.6
2016-Dec-03 10:33N 45°24' W 073°44'6 6.1
2016-Dec-03 09:33N 45°21' W 073°51'3 3.5
2016-Dec-03 08:33N 45°19' W 073°55'1 0.8
2016-Dec-03 07:33N 45°18' W 073°56'0 0.4
2016-Dec-03 06:33N 45°18' W 073°56'4 3.6
2016-Dec-03 05:32N 45°15' W 073°59'10 9.6
2016-Dec-03 04:32N 45°14' W 074°12'24510.1
2016-Dec-02 04:14N 43°16' W 079°12'3 4.2
2016-Dec-02 03:33N 43°13' W 079°13'  
2016-Nov-28 19:33N 46°51' W 091°37'1212.6
2016-Nov-28 18:33N 46°45' W 091°53'7 6.5
2016-Nov-28 17:33N 46°42' W 092°01'0 0.0
2016-Nov-28 16:33N 46°42' W 092°01'0 0.0
2016-Nov-28 15:33N 46°42' W 092°01'0 0.0
2016-Nov-28 14:33N 46°42' W 092°01'0 0.0
2016-Nov-28 13:33N 46°42' W 092°01'0 0.1
2016-Nov-28 12:33N 46°42' W 092°01'0 0.0
2016-Nov-28 11:33N 46°42' W 092°01'0 0.0
2016-Nov-28 10:33N 46°42' W 092°01'0 0.0
2016-Nov-28 09:33N 46°42' W 092°01'0 0.0
2016-Nov-28 08:33N 46°42' W 092°01'0 0.0
2016-Nov-28 07:33N 46°42' W 092°01'0 0.0
2016-Nov-28 06:33N 46°42' W 092°01'0 0.0
2016-Nov-28 05:33N 46°42' W 092°01'0 0.0
2016-Nov-28 04:33N 46°42' W 092°01'0 0.0
2016-Nov-28 03:33N 46°42' W 092°01'0 0.0
2016-Nov-28 02:33N 46°42' W 092°01'0 0.0
2016-Nov-28 01:33N 46°42' W 092°01'0 0.0
2016-Nov-28 00:33N 46°42' W 092°01'0 0.0
2016-Nov-27 23:33N 46°42' W 092°01'0 0.0
2016-Nov-27 22:33N 46°42' W 092°01'1 0.8
2016-Nov-27 21:33N 46°43' W 092°00'1010.5
2016-Nov-27 20:33N 46°47' W 091°47'  
Track history (hours):
 
Tides and Currents Weather Stations Pressure Air Temp Water Temp Dewpoint Dewpoint Depression Visibility Wind Speed Wind Dir Waves Ship Positions

Michipicoten

Last reported at 2016-Dec-06 10:24 UTC. Time now 2016-Dec-09 05:49 UTC.
Position N 43°12' W 079°12'.

Length 213 m; draft 7.8 m.

Type: Cargo ship. MMSI: 316002501.

Date/timePositionNaut miles runAvg speedWind from/ knotsBaromVisibWave heightAir tempDewpointWater temp
2016-Dec-06 10:24N 43°12' W 079°12'1 0.9
2016-Dec-06 09:32N 43°13' W 079°13'3 3.0
2016-Dec-06 08:33N 43°16' W 079°12'247 9.9
2016-Dec-05 07:33N 45°14' W 074°09'8 7.8
2016-Dec-05 06:33N 45°15' W 073°58'4 3.7
2016-Dec-05 05:31N 45°18' W 073°55'1 1.0
2016-Dec-05 04:32N 45°19' W 073°55'6 5.8
2016-Dec-05 03:33N 45°23' W 073°49'7 7.0
2016-Dec-05 02:33N 45°24' W 073°39'4 3.6
2016-Dec-05 01:20N 45°24' W 073°33'4 4.7
2016-Dec-05 00:31N 45°28' W 073°30'2 1.9
2016-Dec-04 23:17N 45°30' W 073°31'3 0.1
2016-Dec-03 13:32N 45°27' W 073°30'4 3.5
2016-Dec-03 12:24N 45°24' W 073°34'1 1.7
2016-Dec-03 11:33N 45°24' W 073°36'5 5.6
2016-Dec-03 10:33N 45°24' W 073°44'6 6.1
2016-Dec-03 09:33N 45°21' W 073°51'3 3.5
2016-Dec-03 08:33N 45°19' W 073°55'1 0.8
2016-Dec-03 07:33N 45°18' W 073°56'0 0.4
2016-Dec-03 06:33N 45°18' W 073°56'4 3.6
2016-Dec-03 05:32N 45°15' W 073°59'10 9.6
2016-Dec-03 04:32N 45°14' W 074°12'24510.1
2016-Dec-02 04:14N 43°16' W 079°12'3 4.2
2016-Dec-02 03:33N 43°13' W 079°13'  
2016-Nov-28 19:33N 46°51' W 091°37'1212.6
2016-Nov-28 18:33N 46°45' W 091°53'7 6.5
2016-Nov-28 17:33N 46°42' W 092°01'0 0.0
2016-Nov-28 16:33N 46°42' W 092°01'0 0.0
2016-Nov-28 15:33N 46°42' W 092°01'0 0.0
2016-Nov-28 14:33N 46°42' W 092°01'0 0.0
2016-Nov-28 13:33N 46°42' W 092°01'0 0.1
2016-Nov-28 12:33N 46°42' W 092°01'0 0.0
2016-Nov-28 11:33N 46°42' W 092°01'0 0.0
2016-Nov-28 10:33N 46°42' W 092°01'0 0.0
2016-Nov-28 09:33N 46°42' W 092°01'0 0.0
2016-Nov-28 08:33N 46°42' W 092°01'0 0.0
2016-Nov-28 07:33N 46°42' W 092°01'0 0.0
2016-Nov-28 06:33N 46°42' W 092°01'0 0.0
2016-Nov-28 05:33N 46°42' W 092°01'0 0.0
2016-Nov-28 04:33N 46°42' W 092°01'0 0.0
2016-Nov-28 03:33N 46°42' W 092°01'0 0.0
2016-Nov-28 02:33N 46°42' W 092°01'0 0.0
2016-Nov-28 01:33N 46°42' W 092°01'0 0.0
2016-Nov-28 00:33N 46°42' W 092°01'0 0.0
2016-Nov-27 23:33N 46°42' W 092°01'0 0.0
2016-Nov-27 22:33N 46°42' W 092°01'1 0.8
2016-Nov-27 21:33N 46°43' W 092°00'1010.5
2016-Nov-27 20:33N 46°47' W 091°47'  

Dump ship's entire track history